sensor_id;sensor_type;location;lat;lon;timestamp;temperature;humidity
19000;DHT22;9633;50.980;13.850;2024-01-16T00:00:13;1.30;4.20
19000;DHT22;9633;50.980;13.850;2024-01-16T00:01:46;1.20;3.50
19000;DHT22;9633;50.980;13.850;2024-01-16T00:03:18;1.30;4.00
19000;DHT22;9633;50.980;13.850;2024-01-16T00:04:51;1.30;3.30
19000;DHT22;9633;50.980;13.850;2024-01-16T00:06:24;1.30;3.10
19000;DHT22;9633;50.980;13.850;2024-01-16T00:07:57;1.30;3.00
19000;DHT22;9633;50.980;13.850;2024-01-16T00:09:33;1.30;2.60
19000;DHT22;9633;50.980;13.850;2024-01-16T00:11:06;1.30;2.40
19000;DHT22;9633;50.980;13.850;2024-01-16T00:12:38;1.20;2.40
19000;DHT22;9633;50.980;13.850;2024-01-16T00:14:12;1.20;3.50
19000;DHT22;9633;50.980;13.850;2024-01-16T00:15:46;1.20;3.20
19000;DHT22;9633;50.980;13.850;2024-01-16T00:17:21;1.10;3.20
19000;DHT22;9633;50.980;13.850;2024-01-16T00:18:54;1.10;2.40
19000;DHT22;9633;50.980;13.850;2024-01-16T00:20:27;1.10;2.70
19000;DHT22;9633;50.980;13.850;2024-01-16T00:22:00;1.10;2.70
19000;DHT22;9633;50.980;13.850;2024-01-16T00:23:34;1.00;3.30
19000;DHT22;9633;50.980;13.850;2024-01-16T00:25:08;1.00;2.00
19000;DHT22;9633;50.980;13.850;2024-01-16T00:26:40;1.00;2.80
19000;DHT22;9633;50.980;13.850;2024-01-16T00:28:13;1.00;3.10
19000;DHT22;9633;50.980;13.850;2024-01-16T00:29:47;1.10;2.40
19000;DHT22;9633;50.980;13.850;2024-01-16T00:31:21;1.10;3.40
19000;DHT22;9633;50.980;13.850;2024-01-16T00:32:54;1.10;3.20
19000;DHT22;9633;50.980;13.850;2024-01-16T00:34:26;1.10;3.60
19000;DHT22;9633;50.980;13.850;2024-01-16T00:35:59;1.20;4.90
19000;DHT22;9633;50.980;13.850;2024-01-16T00:37:32;1.10;17.00
19000;DHT22;9633;50.980;13.850;2024-01-16T00:39:05;0.90;29.40
19000;DHT22;9633;50.980;13.850;2024-01-16T00:40:39;0.70;53.50
19000;DHT22;9633;50.980;13.850;2024-01-16T00:42:12;0.70;89.50
19000;DHT22;9633;50.980;13.850;2024-01-16T00:43:44;0.60;99.90
19000;DHT22;9633;50.980;13.850;2024-01-16T00:45:18;0.50;99.90
19000;DHT22;9633;50.980;13.850;2024-01-16T00:46:52;0.50;99.90
19000;DHT22;9633;50.980;13.850;2024-01-16T00:48:24;0.50;99.90
19000;DHT22;9633;50.980;13.850;2024-01-16T00:49:58;0.50;99.90
19000;DHT22;9633;50.980;13.850;2024-01-16T00:51:34;0.50;99.90
19000;DHT22;9633;50.980;13.850;2024-01-16T00:53:07;0.50;99.90
19000;DHT22;9633;50.980;13.850;2024-01-16T00:54:39;0.50;99.90
19000;DHT22;9633;50.980;13.850;2024-01-16T00:56:13;0.50;96.00
19000;DHT22;9633;50.980;13.850;2024-01-16T00:57:45;0.60;93.20
19000;DHT22;9633;50.980;13.850;2024-01-16T00:59:18;0.60;89.60
19000;DHT22;9633;50.980;13.850;2024-01-16T01:00:51;0.50;80.50
19000;DHT22;9633;50.980;13.850;2024-01-16T01:02:25;0.60;66.50
19000;DHT22;9633;50.980;13.850;2024-01-16T01:03:59;0.60;60.60
19000;DHT22;9633;50.980;13.850;2024-01-16T01:05:31;0.70;54.10
19000;DHT22;9633;50.980;13.850;2024-01-16T01:07:04;0.70;45.50
19000;DHT22;9633;50.980;13.850;2024-01-16T01:08:37;0.80;43.30
19000;DHT22;9633;50.980;13.850;2024-01-16T01:10:10;0.90;41.20
19000;DHT22;9633;50.980;13.850;2024-01-16T01:11:42;0.90;39.10
19000;DHT22;9633;50.980;13.850;2024-01-16T01:13:15;0.90;38.30
19000;DHT22;9633;50.980;13.850;2024-01-16T01:14:48;0.90;36.00
19000;DHT22;9633;50.980;13.850;2024-01-16T01:16:21;0.90;35.60
19000;DHT22;9633;50.980;13.850;2024-01-16T01:17:55;1.00;33.60
19000;DHT22;9633;50.980;13.850;2024-01-16T01:19:28;1.00;31.20
19000;DHT22;9633;50.980;13.850;2024-01-16T01:21:01;1.00;30.40
19000;DHT22;9633;50.980;13.850;2024-01-16T01:22:35;1.00;30.20
19000;DHT22;9633;50.980;13.850;2024-01-16T01:24:09;1.00;27.30
19000;DHT22;9633;50.980;13.850;2024-01-16T01:25:42;1.10;27.00
19000;DHT22;9633;50.980;13.850;2024-01-16T01:27:14;1.00;26.70
19000;DHT22;9633;50.980;13.850;2024-01-16T01:28:47;1.10;25.80
19000;DHT22;9633;50.980;13.850;2024-01-16T01:30:20;1.10;25.20
19000;DHT22;9633;50.980;13.850;2024-01-16T01:31:53;1.10;25.20
19000;DHT22;9633;50.980;13.850;2024-01-16T01:33:27;1.10;26.10
19000;DHT22;9633;50.980;13.850;2024-01-16T01:35:00;1.10;26.90
19000;DHT22;9633;50.980;13.850;2024-01-16T01:36:33;1.00;30.00
19000;DHT22;9633;50.980;13.850;2024-01-16T01:38:07;0.90;38.60
19000;DHT22;9633;50.980;13.850;2024-01-16T01:39:40;0.90;47.30
19000;DHT22;9633;50.980;13.850;2024-01-16T01:41:13;0.80;55.30
19000;DHT22;9633;50.980;13.850;2024-01-16T01:42:46;0.80;59.80
19000;DHT22;9633;50.980;13.850;2024-01-16T01:44:19;0.80;64.80
19000;DHT22;9633;50.980;13.850;2024-01-16T01:46:11;0.70;65.90
19000;DHT22;9633;50.980;13.850;2024-01-16T01:47:47;0.70;68.60
19000;DHT22;9633;50.980;13.850;2024-01-16T01:49:22;0.70;68.20
19000;DHT22;9633;50.980;13.850;2024-01-16T01:50:56;0.70;67.80
19000;DHT22;9633;50.980;13.850;2024-01-16T01:52:28;0.80;68.00
19000;DHT22;9633;50.980;13.850;2024-01-16T01:54:01;0.70;91.60
19000;DHT22;9633;50.980;13.850;2024-01-16T01:55:33;0.60;99.90
19000;DHT22;9633;50.980;13.850;2024-01-16T01:57:08;0.60;99.90
19000;DHT22;9633;50.980;13.850;2024-01-16T01:58:42;0.50;99.90
19000;DHT22;9633;50.980;13.850;2024-01-16T02:00:16;0.50;99.90
19000;DHT22;9633;50.980;13.850;2024-01-16T02:01:51;0.50;98.90
19000;DHT22;9633;50.980;13.850;2024-01-16T02:03:27;0.60;92.10
19000;DHT22;9633;50.980;13.850;2024-01-16T02:05:01;0.70;81.00
19000;DHT22;9633;50.980;13.850;2024-01-16T02:06:35;0.70;65.20
19000;DHT22;9633;50.980;13.850;2024-01-16T02:08:08;0.80;50.40
19000;DHT22;9633;50.980;13.850;2024-01-16T02:09:41;0.80;45.40
19000;DHT22;9633;50.980;13.850;2024-01-16T02:11:14;0.90;39.50
19000;DHT22;9633;50.980;13.850;2024-01-16T02:12:47;0.90;35.80
19000;DHT22;9633;50.980;13.850;2024-01-16T02:14:20;0.90;32.10
19000;DHT22;9633;50.980;13.850;2024-01-16T02:15:53;0.90;29.70
19000;DHT22;9633;50.980;13.850;2024-01-16T02:17:25;1.00;26.30
19000;DHT22;9633;50.980;13.850;2024-01-16T02:18:58;1.00;24.30
19000;DHT22;9633;50.980;13.850;2024-01-16T02:20:32;1.10;24.30
19000;DHT22;9633;50.980;13.850;2024-01-16T02:22:09;1.10;24.00
19000;DHT22;9633;50.980;13.850;2024-01-16T02:23:45;1.10;22.60
19000;DHT22;9633;50.980;13.850;2024-01-16T02:25:18;1.10;22.40
19000;DHT22;9633;50.980;13.850;2024-01-16T02:26:51;1.10;22.50
19000;DHT22;9633;50.980;13.850;2024-01-16T02:28:24;1.00;23.60
19000;DHT22;9633;50.980;13.850;2024-01-16T02:29:57;1.10;25.80
19000;DHT22;9633;50.980;13.850;2024-01-16T02:31:29;1.00;36.00
19000;DHT22;9633;50.980;13.850;2024-01-16T02:33:02;0.80;65.00
19000;DHT22;9633;50.980;13.850;2024-01-16T02:34:35;0.70;90.40
19000;DHT22;9633;50.980;13.850;2024-01-16T02:36:09;0.60;94.20
19000;DHT22;9633;50.980;13.850;2024-01-16T02:37:41;0.60;99.00
19000;DHT22;9633;50.980;13.850;2024-01-16T02:39:15;0.60;98.90
19000;DHT22;9633;50.980;13.850;2024-01-16T02:40:47;0.60;92.40
19000;DHT22;9633;50.980;13.850;2024-01-16T02:42:21;0.70;74.30
19000;DHT22;9633;50.980;13.850;2024-01-16T02:43:53;0.80;61.30
19000;DHT22;9633;50.980;13.850;2024-01-16T02:45:26;0.70;59.40
19000;DHT22;9633;50.980;13.850;2024-01-16T02:46:58;0.70;62.50
19000;DHT22;9633;50.980;13.850;2024-01-16T02:48:32;0.80;69.30
19000;DHT22;9633;50.980;13.850;2024-01-16T02:50:05;0.70;76.30
19000;DHT22;9633;50.980;13.850;2024-01-16T02:51:41;0.60;82.20
19000;DHT22;9633;50.980;13.850;2024-01-16T02:53:13;0.70;89.20
19000;DHT22;9633;50.980;13.850;2024-01-16T02:54:48;0.60;93.70
19000;DHT22;9633;50.980;13.850;2024-01-16T02:56:20;0.70;94.80
19000;DHT22;9633;50.980;13.850;2024-01-16T02:57:54;0.70;94.80
19000;DHT22;9633;50.980;13.850;2024-01-16T02:59:26;0.70;95.50
19000;DHT22;9633;50.980;13.850;2024-01-16T03:01:00;0.70;95.00
19000;DHT22;9633;50.980;13.850;2024-01-16T03:02:34;0.70;96.70
19000;DHT22;9633;50.980;13.850;2024-01-16T03:04:07;0.70;97.30
19000;DHT22;9633;50.980;13.850;2024-01-16T03:05:41;0.70;99.90
19000;DHT22;9633;50.980;13.850;2024-01-16T03:07:13;0.70;99.90
19000;DHT22;9633;50.980;13.850;2024-01-16T03:08:46;0.60;99.90
19000;DHT22;9633;50.980;13.850;2024-01-16T03:10:21;0.60;99.90
19000;DHT22;9633;50.980;13.850;2024-01-16T03:11:53;0.60;99.90
19000;DHT22;9633;50.980;13.850;2024-01-16T03:13:26;0.60;99.90
19000;DHT22;9633;50.980;13.850;2024-01-16T03:14:59;0.60;99.90
19000;DHT22;9633;50.980;13.850;2024-01-16T03:16:32;0.60;99.90
19000;DHT22;9633;50.980;13.850;2024-01-16T03:18:05;0.60;99.90
19000;DHT22;9633;50.980;13.850;2024-01-16T03:19:38;0.60;96.80
19000;DHT22;9633;50.980;13.850;2024-01-16T03:21:12;0.70;89.00
19000;DHT22;9633;50.980;13.850;2024-01-16T03:22:45;0.80;62.00
19000;DHT22;9633;50.980;13.850;2024-01-16T03:24:19;0.90;56.90
19000;DHT22;9633;50.980;13.850;2024-01-16T03:25:53;0.90;48.50
19000;DHT22;9633;50.980;13.850;2024-01-16T03:27:26;0.90;42.80
19000;DHT22;9633;50.980;13.850;2024-01-16T03:28:58;0.90;38.70
19000;DHT22;9633;50.980;13.850;2024-01-16T03:30:32;1.00;34.80
19000;DHT22;9633;50.980;13.850;2024-01-16T03:32:05;1.10;26.70
19000;DHT22;9633;50.980;13.850;2024-01-16T03:33:38;1.10;25.70
19000;DHT22;9633;50.980;13.850;2024-01-16T03:35:15;1.20;24.40
19000;DHT22;9633;50.980;13.850;2024-01-16T03:36:48;1.20;22.60
19000;DHT22;9633;50.980;13.850;2024-01-16T03:38:21;1.20;22.00
19000;DHT22;9633;50.980;13.850;2024-01-16T03:39:53;1.20;21.10
19000;DHT22;9633;50.980;13.850;2024-01-16T03:41:30;1.20;19.80
19000;DHT22;9633;50.980;13.850;2024-01-16T03:43:04;1.30;20.00
19000;DHT22;9633;50.980;13.850;2024-01-16T03:44:38;1.30;19.70
19000;DHT22;9633;50.980;13.850;2024-01-16T03:46:12;1.30;19.10
19000;DHT22;9633;50.980;13.850;2024-01-16T03:47:44;1.20;22.20
19000;DHT22;9633;50.980;13.850;2024-01-16T03:49:18;1.10;25.60
19000;DHT22;9633;50.980;13.850;2024-01-16T03:50:50;1.00;34.80
19000;DHT22;9633;50.980;13.850;2024-01-16T03:52:23;1.00;41.60
19000;DHT22;9633;50.980;13.850;2024-01-16T03:53:55;0.90;49.00
19000;DHT22;9633;50.980;13.850;2024-01-16T03:55:28;0.80;63.60
19000;DHT22;9633;50.980;13.850;2024-01-16T03:57:02;0.80;73.30
19000;DHT22;9633;50.980;13.850;2024-01-16T03:58:35;0.70;80.70
19000;DHT22;9633;50.980;13.850;2024-01-16T04:00:08;0.80;91.40
19000;DHT22;9633;50.980;13.850;2024-01-16T04:01:44;0.70;96.80
19000;DHT22;9633;50.980;13.850;2024-01-16T04:03:17;0.70;99.90
19000;DHT22;9633;50.980;13.850;2024-01-16T04:04:50;0.70;99.90
19000;DHT22;9633;50.980;13.850;2024-01-16T04:06:22;0.60;99.90
19000;DHT22;9633;50.980;13.850;2024-01-16T04:07:56;0.60;99.90
19000;DHT22;9633;50.980;13.850;2024-01-16T04:09:29;0.50;99.90
19000;DHT22;9633;50.980;13.850;2024-01-16T04:11:03;0.50;99.90
19000;DHT22;9633;50.980;13.850;2024-01-16T04:12:36;0.50;99.90
19000;DHT22;9633;50.980;13.850;2024-01-16T04:14:09;0.50;99.90
19000;DHT22;9633;50.980;13.850;2024-01-16T04:15:41;0.60;99.90
19000;DHT22;9633;50.980;13.850;2024-01-16T04:17:15;0.40;99.90
19000;DHT22;9633;50.980;13.850;2024-01-16T04:18:47;0.50;99.90
19000;DHT22;9633;50.980;13.850;2024-01-16T04:20:20;0.50;99.90
19000;DHT22;9633;50.980;13.850;2024-01-16T04:21:53;0.50;99.90
19000;DHT22;9633;50.980;13.850;2024-01-16T04:23:26;0.50;99.90
19000;DHT22;9633;50.980;13.850;2024-01-16T04:24:58;0.50;99.90
19000;DHT22;9633;50.980;13.850;2024-01-16T04:26:31;0.60;99.90
19000;DHT22;9633;50.980;13.850;2024-01-16T04:28:05;0.50;99.90
19000;DHT22;9633;50.980;13.850;2024-01-16T04:29:38;0.60;99.90
19000;DHT22;9633;50.980;13.850;2024-01-16T04:31:11;0.50;99.90
19000;DHT22;9633;50.980;13.850;2024-01-16T04:32:45;0.40;99.90
19000;DHT22;9633;50.980;13.850;2024-01-16T04:34:17;0.50;99.90
19000;DHT22;9633;50.980;13.850;2024-01-16T04:35:51;0.40;99.90
19000;DHT22;9633;50.980;13.850;2024-01-16T04:37:23;0.40;99.90
19000;DHT22;9633;50.980;13.850;2024-01-16T04:38:56;0.50;99.90
19000;DHT22;9633;50.980;13.850;2024-01-16T04:40:32;0.50;99.90
19000;DHT22;9633;50.980;13.850;2024-01-16T04:42:05;0.40;99.90
19000;DHT22;9633;50.980;13.850;2024-01-16T04:43:38;0.50;99.90
19000;DHT22;9633;50.980;13.850;2024-01-16T04:45:12;0.60;99.90
19000;DHT22;9633;50.980;13.850;2024-01-16T04:46:44;0.60;99.90
19000;DHT22;9633;50.980;13.850;2024-01-16T04:48:17;0.70;92.90
19000;DHT22;9633;50.980;13.850;2024-01-16T04:49:49;0.80;77.70
19000;DHT22;9633;50.980;13.850;2024-01-16T04:51:23;0.80;66.30
19000;DHT22;9633;50.980;13.850;2024-01-16T04:52:57;0.80;60.00
19000;DHT22;9633;50.980;13.850;2024-01-16T04:54:29;0.80;58.10
19000;DHT22;9633;50.980;13.850;2024-01-16T04:56:02;0.80;58.60
19000;DHT22;9633;50.980;13.850;2024-01-16T04:57:34;0.70;56.10
19000;DHT22;9633;50.980;13.850;2024-01-16T04:59:09;0.80;51.60
19000;DHT22;9633;50.980;13.850;2024-01-16T05:00:45;0.80;48.40
19000;DHT22;9633;50.980;13.850;2024-01-16T05:02:19;0.90;43.30
19000;DHT22;9633;50.980;13.850;2024-01-16T05:03:52;0.90;40.00
19000;DHT22;9633;50.980;13.850;2024-01-16T05:05:25;0.90;38.60
19000;DHT22;9633;50.980;13.850;2024-01-16T05:07:01;0.90;37.50
19000;DHT22;9633;50.980;13.850;2024-01-16T05:08:33;0.90;36.80
19000;DHT22;9633;50.980;13.850;2024-01-16T05:10:09;0.90;37.90
19000;DHT22;9633;50.980;13.850;2024-01-16T05:11:41;0.80;38.90
19000;DHT22;9633;50.980;13.850;2024-01-16T05:13:15;0.80;39.80
19000;DHT22;9633;50.980;13.850;2024-01-16T05:14:49;0.80;37.50
19000;DHT22;9633;50.980;13.850;2024-01-16T05:16:22;0.90;37.10
19000;DHT22;9633;50.980;13.850;2024-01-16T05:17:54;0.90;35.60
19000;DHT22;9633;50.980;13.850;2024-01-16T05:19:27;0.90;34.10
19000;DHT22;9633;50.980;13.850;2024-01-16T05:21:00;0.90;31.50
19000;DHT22;9633;50.980;13.850;2024-01-16T05:22:34;0.90;28.50
19000;DHT22;9633;50.980;13.850;2024-01-16T05:24:07;0.90;28.40
19000;DHT22;9633;50.980;13.850;2024-01-16T05:25:40;0.90;22.50
19000;DHT22;9633;50.980;13.850;2024-01-16T05:27:12;1.10;19.30
19000;DHT22;9633;50.980;13.850;2024-01-16T05:28:46;1.10;17.40
19000;DHT22;9633;50.980;13.850;2024-01-16T05:30:19;1.20;13.70
19000;DHT22;9633;50.980;13.850;2024-01-16T05:31:53;1.20;12.30
19000;DHT22;9633;50.980;13.850;2024-01-16T05:33:26;1.20;7.60
19000;DHT22;9633;50.980;13.850;2024-01-16T05:34:58;1.40;8.60
19000;DHT22;9633;50.980;13.850;2024-01-16T05:36:32;1.30;7.60
19000;DHT22;9633;50.980;13.850;2024-01-16T05:38:05;1.30;7.10
19000;DHT22;9633;50.980;13.850;2024-01-16T05:39:38;1.30;7.30
19000;DHT22;9633;50.980;13.850;2024-01-16T05:41:10;1.30;6.30
19000;DHT22;9633;50.980;13.850;2024-01-16T05:42:44;1.40;6.30
19000;DHT22;9633;50.980;13.850;2024-01-16T05:44:16;1.40;5.40
19000;DHT22;9633;50.980;13.850;2024-01-16T05:45:50;1.30;3.30
19000;DHT22;9633;50.980;13.850;2024-01-16T05:47:23;1.40;3.30
19000;DHT22;9633;50.980;13.850;2024-01-16T05:49:00;1.50;5.20
19000;DHT22;9633;50.980;13.850;2024-01-16T05:50:32;1.30;4.30
19000;DHT22;9633;50.980;13.850;2024-01-16T05:52:06;1.30;4.70
19000;DHT22;9633;50.980;13.850;2024-01-16T05:53:39;1.40;4.10
19000;DHT22;9633;50.980;13.850;2024-01-16T05:55:13;1.30;4.30
19000;DHT22;9633;50.980;13.850;2024-01-16T05:56:45;1.20;4.70
19000;DHT22;9633;50.980;13.850;2024-01-16T05:58:18;1.30;4.20
19000;DHT22;9633;50.980;13.850;2024-01-16T05:59:51;1.30;4.80
19000;DHT22;9633;50.980;13.850;2024-01-16T06:01:26;1.30;5.00
19000;DHT22;9633;50.980;13.850;2024-01-16T06:03:00;1.30;5.50
19000;DHT22;9633;50.980;13.850;2024-01-16T06:04:33;1.30;5.40
19000;DHT22;9633;50.980;13.850;2024-01-16T06:06:05;1.30;4.60
19000;DHT22;9633;50.980;13.850;2024-01-16T06:07:39;1.20;4.10
19000;DHT22;9633;50.980;13.850;2024-01-16T06:09:12;1.30;5.20
19000;DHT22;9633;50.980;13.850;2024-01-16T06:10:46;1.20;6.10
19000;DHT22;9633;50.980;13.850;2024-01-16T06:12:19;1.10;7.10
19000;DHT22;9633;50.980;13.850;2024-01-16T06:13:52;1.10;7.40
19000;DHT22;9633;50.980;13.850;2024-01-16T06:15:25;1.10;7.80
19000;DHT22;9633;50.980;13.850;2024-01-16T06:16:59;1.10;7.70
19000;DHT22;9633;50.980;13.850;2024-01-16T06:18:31;1.00;7.80
19000;DHT22;9633;50.980;13.850;2024-01-16T06:20:06;1.10;8.30
19000;DHT22;9633;50.980;13.850;2024-01-16T06:21:40;1.00;8.30
19000;DHT22;9633;50.980;13.850;2024-01-16T06:23:12;1.10;9.70
19000;DHT22;9633;50.980;13.850;2024-01-16T06:24:45;1.00;18.20
19000;DHT22;9633;50.980;13.850;2024-01-16T06:26:17;0.80;45.50
19000;DHT22;9633;50.980;13.850;2024-01-16T06:27:51;0.60;88.20
19000;DHT22;9633;50.980;13.850;2024-01-16T06:29:23;0.50;99.90
19000;DHT22;9633;50.980;13.850;2024-01-16T06:31:06;0.40;99.90
19000;DHT22;9633;50.980;13.850;2024-01-16T06:32:40;0.40;99.90
19000;DHT22;9633;50.980;13.850;2024-01-16T06:34:13;0.40;99.90
19000;DHT22;9633;50.980;13.850;2024-01-16T06:35:46;0.40;99.90
19000;DHT22;9633;50.980;13.850;2024-01-16T06:37:21;0.40;99.90
19000;DHT22;9633;50.980;13.850;2024-01-16T06:38:55;0.40;99.90
19000;DHT22;9633;50.980;13.850;2024-01-16T06:40:27;0.40;98.30
19000;DHT22;9633;50.980;13.850;2024-01-16T06:42:00;0.40;84.00
19000;DHT22;9633;50.980;13.850;2024-01-16T06:43:40;0.50;56.80
19000;DHT22;9633;50.980;13.850;2024-01-16T06:45:12;0.50;49.10
19000;DHT22;9633;50.980;13.850;2024-01-16T06:46:47;0.50;45.70
19000;DHT22;9633;50.980;13.850;2024-01-16T06:48:20;0.50;39.40
19000;DHT22;9633;50.980;13.850;2024-01-16T06:49:54;0.50;38.10
19000;DHT22;9633;50.980;13.850;2024-01-16T06:51:27;0.50;41.80
19000;DHT22;9633;50.980;13.850;2024-01-16T06:53:00;0.50;44.10
19000;DHT22;9633;50.980;13.850;2024-01-16T06:54:33;0.60;47.30
19000;DHT22;9633;50.980;13.850;2024-01-16T06:56:06;0.50;49.70
19000;DHT22;9633;50.980;13.850;2024-01-16T06:57:39;0.50;45.80
19000;DHT22;9633;50.980;13.850;2024-01-16T06:59:12;0.60;45.50
19000;DHT22;9633;50.980;13.850;2024-01-16T07:00:44;0.60;48.20
19000;DHT22;9633;50.980;13.850;2024-01-16T07:02:18;0.60;53.60
19000;DHT22;9633;50.980;13.850;2024-01-16T07:03:52;0.60;60.70
19000;DHT22;9633;50.980;13.850;2024-01-16T07:05:25;0.50;63.10
19000;DHT22;9633;50.980;13.850;2024-01-16T07:06:58;0.40;63.80
19000;DHT22;9633;50.980;13.850;2024-01-16T07:08:32;0.50;63.50
19000;DHT22;9633;50.980;13.850;2024-01-16T07:10:06;0.50;52.00
19000;DHT22;9633;50.980;13.850;2024-01-16T07:11:45;0.50;45.70
19000;DHT22;9633;50.980;13.850;2024-01-16T07:13:18;0.60;41.00
19000;DHT22;9633;50.980;13.850;2024-01-16T07:14:51;0.60;37.90
19000;DHT22;9633;50.980;13.850;2024-01-16T07:16:24;0.60;35.70
19000;DHT22;9633;50.980;13.850;2024-01-16T07:17:56;0.50;32.10
19000;DHT22;9633;50.980;13.850;2024-01-16T07:19:31;0.60;29.00
19000;DHT22;9633;50.980;13.850;2024-01-16T07:21:03;0.60;27.50
19000;DHT22;9633;50.980;13.850;2024-01-16T07:22:36;0.60;25.90
19000;DHT22;9633;50.980;13.850;2024-01-16T07:24:09;0.60;23.30
19000;DHT22;9633;50.980;13.850;2024-01-16T07:25:42;0.80;18.80
19000;DHT22;9633;50.980;13.850;2024-01-16T07:27:14;0.80;16.50
19000;DHT22;9633;50.980;13.850;2024-01-16T07:28:47;0.90;13.40
19000;DHT22;9633;50.980;13.850;2024-01-16T07:30:19;0.90;11.50
19000;DHT22;9633;50.980;13.850;2024-01-16T07:31:53;0.90;9.70
19000;DHT22;9633;50.980;13.850;2024-01-16T07:33:26;1.10;8.90
19000;DHT22;9633;50.980;13.850;2024-01-16T07:35:01;1.10;8.40
19000;DHT22;9633;50.980;13.850;2024-01-16T07:36:35;1.10;7.70
19000;DHT22;9633;50.980;13.850;2024-01-16T07:38:07;1.10;6.30
19000;DHT22;9633;50.980;13.850;2024-01-16T07:39:40;1.10;6.30
19000;DHT22;9633;50.980;13.850;2024-01-16T07:41:12;1.20;4.90
19000;DHT22;9633;50.980;13.850;2024-01-16T07:42:46;1.20;4.90
19000;DHT22;9633;50.980;13.850;2024-01-16T07:44:18;1.10;5.00
19000;DHT22;9633;50.980;13.850;2024-01-16T07:45:51;1.10;4.50
19000;DHT22;9633;50.980;13.850;2024-01-16T07:47:24;1.20;4.40
19000;DHT22;9633;50.980;13.850;2024-01-16T07:48:57;1.20;3.70
19000;DHT22;9633;50.980;13.850;2024-01-16T07:50:32;1.20;3.10
19000;DHT22;9633;50.980;13.850;2024-01-16T07:52:04;1.20;2.70
19000;DHT22;9633;50.980;13.850;2024-01-16T07:53:38;1.20;2.50
19000;DHT22;9633;50.980;13.850;2024-01-16T07:55:10;1.20;1.60
19000;DHT22;9633;50.980;13.850;2024-01-16T07:56:44;1.30;1.60
19000;DHT22;9633;50.980;13.850;2024-01-16T07:58:16;1.20;1.70
19000;DHT22;9633;50.980;13.850;2024-01-16T07:59:49;1.20;1.60
19000;DHT22;9633;50.980;13.850;2024-01-16T08:01:21;1.20;1.00
19000;DHT22;9633;50.980;13.850;2024-01-16T08:02:54;1.20;1.20
19000;DHT22;9633;50.980;13.850;2024-01-16T08:04:27;1.20;1.00
19000;DHT22;9633;50.980;13.850;2024-01-16T08:06:01;1.20;1.00
19000;DHT22;9633;50.980;13.850;2024-01-16T08:07:34;1.20;1.00
19000;DHT22;9633;50.980;13.850;2024-01-16T08:09:07;1.30;1.00
19000;DHT22;9633;50.980;13.850;2024-01-16T08:10:41;1.30;1.00
19000;DHT22;9633;50.980;13.850;2024-01-16T08:12:14;1.30;1.00
19000;DHT22;9633;50.980;13.850;2024-01-16T08:13:47;1.30;1.00
19000;DHT22;9633;50.980;13.850;2024-01-16T08:15:20;1.20;1.00
19000;DHT22;9633;50.980;13.850;2024-01-16T08:16:53;1.30;1.00
19000;DHT22;9633;50.980;13.850;2024-01-16T08:18:26;1.30;1.00
19000;DHT22;9633;50.980;13.850;2024-01-16T08:19:59;1.30;1.00
19000;DHT22;9633;50.980;13.850;2024-01-16T08:21:33;1.30;1.00
19000;DHT22;9633;50.980;13.850;2024-01-16T08:23:06;1.30;1.00
19000;DHT22;9633;50.980;13.850;2024-01-16T08:24:39;1.30;1.00
19000;DHT22;9633;50.980;13.850;2024-01-16T08:26:12;1.30;1.00
19000;DHT22;9633;50.980;13.850;2024-01-16T08:27:44;1.30;1.00
19000;DHT22;9633;50.980;13.850;2024-01-16T08:29:17;1.40;1.00
19000;DHT22;9633;50.980;13.850;2024-01-16T08:30:49;1.30;1.00
19000;DHT22;9633;50.980;13.850;2024-01-16T08:32:23;1.40;1.00
19000;DHT22;9633;50.980;13.850;2024-01-16T08:33:55;1.40;1.00
19000;DHT22;9633;50.980;13.850;2024-01-16T08:35:29;1.40;1.00
19000;DHT22;9633;50.980;13.850;2024-01-16T08:37:03;1.40;1.00
19000;DHT22;9633;50.980;13.850;2024-01-16T08:38:36;1.50;1.00
19000;DHT22;9633;50.980;13.850;2024-01-16T08:40:10;1.50;1.00
19000;DHT22;9633;50.980;13.850;2024-01-16T08:41:43;1.40;1.00
19000;DHT22;9633;50.980;13.850;2024-01-16T08:43:17;1.50;1.00
19000;DHT22;9633;50.980;13.850;2024-01-16T08:44:51;1.50;1.00
19000;DHT22;9633;50.980;13.850;2024-01-16T08:46:23;1.50;1.00
19000;DHT22;9633;50.980;13.850;2024-01-16T08:47:56;1.60;1.00
19000;DHT22;9633;50.980;13.850;2024-01-16T08:49:28;1.60;1.00
19000;DHT22;9633;50.980;13.850;2024-01-16T08:51:07;1.60;1.00
19000;DHT22;9633;50.980;13.850;2024-01-16T08:52:41;1.60;1.00
19000;DHT22;9633;50.980;13.850;2024-01-16T08:54:14;1.70;1.00
19000;DHT22;9633;50.980;13.850;2024-01-16T08:55:47;1.80;1.00
19000;DHT22;9633;50.980;13.850;2024-01-16T08:57:20;1.90;1.00
19000;DHT22;9633;50.980;13.850;2024-01-16T08:58:56;2.00;1.00
19000;DHT22;9633;50.980;13.850;2024-01-16T09:00:29;2.10;1.00
19000;DHT22;9633;50.980;13.850;2024-01-16T09:02:02;2.00;1.00
19000;DHT22;9633;50.980;13.850;2024-01-16T09:03:35;2.00;1.00
19000;DHT22;9633;50.980;13.850;2024-01-16T09:05:08;2.00;1.00
19000;DHT22;9633;50.980;13.850;2024-01-16T09:06:41;2.00;1.00
19000;DHT22;9633;50.980;13.850;2024-01-16T09:08:15;2.00;1.00
19000;DHT22;9633;50.980;13.850;2024-01-16T09:09:49;2.00;1.00
19000;DHT22;9633;50.980;13.850;2024-01-16T09:11:21;1.90;1.00
19000;DHT22;9633;50.980;13.850;2024-01-16T09:12:54;1.80;1.00
19000;DHT22;9633;50.980;13.850;2024-01-16T09:14:27;1.90;1.00
19000;DHT22;9633;50.980;13.850;2024-01-16T09:16:00;1.90;1.00
19000;DHT22;9633;50.980;13.850;2024-01-16T09:17:32;1.90;1.00
19000;DHT22;9633;50.980;13.850;2024-01-16T09:19:06;1.80;1.00
19000;DHT22;9633;50.980;13.850;2024-01-16T09:20:41;1.90;1.00
19000;DHT22;9633;50.980;13.850;2024-01-16T09:22:15;2.10;1.00
19000;DHT22;9633;50.980;13.850;2024-01-16T09:23:49;2.80;1.00
19000;DHT22;9633;50.980;13.850;2024-01-16T09:25:22;3.40;1.00
19000;DHT22;9633;50.980;13.850;2024-01-16T09:26:57;3.80;1.00
19000;DHT22;9633;50.980;13.850;2024-01-16T09:28:31;3.90;1.00
19000;DHT22;9633;50.980;13.850;2024-01-16T09:30:04;3.80;1.00
19000;DHT22;9633;50.980;13.850;2024-01-16T09:31:39;3.30;1.00
19000;DHT22;9633;50.980;13.850;2024-01-16T09:33:11;3.30;1.00
19000;DHT22;9633;50.980;13.850;2024-01-16T09:34:45;3.40;1.00
19000;DHT22;9633;50.980;13.850;2024-01-16T09:36:18;3.70;1.00
19000;DHT22;9633;50.980;13.850;2024-01-16T09:37:51;3.20;1.00
19000;DHT22;9633;50.980;13.850;2024-01-16T09:39:25;3.00;1.00
19000;DHT22;9633;50.980;13.850;2024-01-16T09:40:58;2.90;1.00
19000;DHT22;9633;50.980;13.850;2024-01-16T09:42:31;2.50;1.00
19000;DHT22;9633;50.980;13.850;2024-01-16T09:44:05;2.60;1.00
19000;DHT22;9633;50.980;13.850;2024-01-16T09:45:39;2.90;1.00
19000;DHT22;9633;50.980;13.850;2024-01-16T09:47:12;2.90;1.00
19000;DHT22;9633;50.980;13.850;2024-01-16T09:48:47;2.80;1.00
19000;DHT22;9633;50.980;13.850;2024-01-16T09:50:20;2.60;1.00
19000;DHT22;9633;50.980;13.850;2024-01-16T09:51:53;2.80;1.00
19000;DHT22;9633;50.980;13.850;2024-01-16T09:53:25;2.90;1.00
19000;DHT22;9633;50.980;13.850;2024-01-16T09:55:00;3.20;1.00
19000;DHT22;9633;50.980;13.850;2024-01-16T09:56:34;3.40;1.00
19000;DHT22;9633;50.980;13.850;2024-01-16T09:58:09;3.40;1.00
19000;DHT22;9633;50.980;13.850;2024-01-16T09:59:47;3.20;1.00
19000;DHT22;9633;50.980;13.850;2024-01-16T10:01:20;3.40;1.00
19000;DHT22;9633;50.980;13.850;2024-01-16T10:02:54;3.10;1.00